Time;durP1;ratioP1;P1;durP2;ratioP2;P2;SDS_P1;SDS_P2;PMS_P1;PMS_P2;Temp;Humidity;BMP_temperature;BMP_pressure;BME280_temperature;BME280_humidity;BME280_pressure;Samples;Min_cycle;Max_cycle;Signal;HPM_P1;HPM_P2
2021/11/30 00:02:13;;;;;;;1.20;0.15;;;;;20.10;99482.00;;;;5086269;28;20036;-76
2021/11/30 00:04:42;;;;;;;0.00;0.00;;;;;19.90;99466.00;;;;5086543;28;20528;-76
2021/11/30 00:07:12;;;;;;;0.00;0.00;;;;;19.80;99503.00;;;;5086084;28;20072;-75
2021/11/30 00:12:15;;;;;;;0.00;0.00;;;;;19.70;99485.00;;;;5085693;28;20040;-75
2021/11/30 00:14:47;;;;;;;0.43;0.05;;;;;19.70;99503.00;;;;5086309;28;20119;-76
2021/11/30 00:17:18;;;;;;;0.10;0.10;;;;;19.70;99496.00;;;;5086065;28;20090;-76
2021/11/30 00:19:51;;;;;;;0.00;0.00;;;;;19.70;99516.00;;;;5068467;28;20132;-76
2021/11/30 00:22:25;;;;;;;0.00;0.00;;;;;19.60;99508.00;;;;5085828;28;20032;-76
2021/11/30 00:24:55;;;;;;;0.08;0.08;;;;;19.60;99521.00;;;;5085337;28;20098;-76
2021/11/30 00:27:25;;;;;;;0.00;0.00;;;;;19.50;99511.00;;;;5085687;28;20036;-76
2021/11/30 00:29:55;;;;;;;0.00;0.00;;;;;19.40;99520.00;;;;5085717;28;20044;-77
2021/11/30 00:32:24;;;;;;;0.20;0.20;;;;;19.40;99524.00;;;;5085543;28;20072;-76
2021/11/30 00:34:54;;;;;;;0.00;0.00;;;;;19.40;99526.00;;;;5090752;28;20070;-77
2021/11/30 00:37:23;;;;;;;0.10;0.10;;;;;19.30;99533.00;;;;5102072;28;20035;-76
2021/11/30 00:39:53;;;;;;;0.77;0.30;;;;;19.30;99527.00;;;;5108375;28;20082;-75
2021/11/30 00:42:24;;;;;;;0.32;0.30;;;;;19.20;99542.00;;;;5097159;28;20036;-74
2021/11/30 00:44:57;;;;;;;0.63;0.40;;;;;19.10;99549.00;;;;5098532;28;20036;-75
2021/11/30 00:47:30;;;;;;;0.08;0.08;;;;;19.00;99528.00;;;;5109315;28;20593;-74
2021/11/30 00:50:01;;;;;;;0.00;0.00;;;;;19.00;99555.00;;;;5109610;28;20039;-75
2021/11/30 00:52:30;;;;;;;;;;;;;18.90;99555.00;;;;5110188;28;20379;-75
2021/11/30 00:54:59;;;;;;;0.00;0.00;;;;;18.80;99564.00;;;;5109619;28;19919;-75
2021/11/30 00:57:29;;;;;;;0.20;0.17;;;;;18.80;99555.00;;;;5109559;28;20043;-74
2021/11/30 00:59:59;;;;;;;0.00;0.00;;;;;18.90;99572.00;;;;5109671;28;20054;-75
2021/11/30 01:02:28;;;;;;;0.00;0.00;;;;;18.80;99569.00;;;;5110067;28;20060;-75
2021/11/30 01:04:57;;;;;;;0.20;0.20;;;;;18.80;99567.00;;;;5110767;28;20055;-75
2021/11/30 01:07:27;;;;;;;0.10;0.10;;;;;18.80;99581.00;;;;5109492;28;20505;-75
2021/11/30 01:09:57;;;;;;;0.00;0.00;;;;;18.80;99580.00;;;;5109784;28;20093;-74
2021/11/30 01:12:26;;;;;;;0.05;0.05;;;;;18.70;99570.00;;;;5108006;28;20047;-75
2021/11/30 01:14:55;;;;;;;0.10;0.10;;;;;18.70;99587.00;;;;5109470;28;20040;-75
2021/11/30 01:17:25;;;;;;;0.32;0.30;;;;;18.70;99588.00;;;;5107576;28;20092;-75
2021/11/30 01:19:55;;;;;;;0.00;0.00;;;;;18.70;99583.00;;;;5107347;28;20043;-75
2021/11/30 01:22:25;;;;;;;0.22;0.22;;;;;18.70;99594.00;;;;5109078;28;20048;-75
2021/11/30 01:24:54;;;;;;;0.00;0.00;;;;;18.70;99606.00;;;;5109296;28;20456;-76
2021/11/30 01:27:24;;;;;;;0.45;0.35;;;;;18.60;99582.00;;;;5091734;28;20057;-74
2021/11/30 01:29:53;;;;;;;0.43;0.43;;;;;18.60;99598.00;;;;5109235;28;20036;-74
2021/11/30 01:32:22;;;;;;;23.45;21.00;;;;;18.70;99601.00;;;;5108643;28;20048;-75
2021/11/30 01:34:52;;;;;;;0.00;0.00;;;;;18.60;99611.00;;;;5090601;28;20097;-74
2021/11/30 01:37:21;;;;;;;0.00;0.00;;;;;18.60;99596.00;;;;5108584;28;20043;-75
2021/11/30 01:39:51;;;;;;;0.10;0.10;;;;;18.60;99602.00;;;;5108977;28;20047;-76
2021/11/30 01:42:20;;;;;;;1.25;0.43;;;;;18.50;99602.00;;;;5109173;28;20051;-75
2021/11/30 01:44:53;;;;;;;0.17;0.10;;;;;18.50;99605.00;;;;5108807;28;20036;-75
2021/11/30 01:50:01;;;;;;;0.10;0.10;;;;;18.30;99609.00;;;;5108835;28;20054;-74
2021/11/30 01:52:31;;;;;;;0.00;0.00;;;;;18.20;99603.00;;;;5090582;28;20132;-76
2021/11/30 01:55:01;;;;;;;0.00;0.00;;;;;18.20;99596.00;;;;5109018;28;20444;-74
2021/11/30 01:57:31;;;;;;;0.20;0.20;;;;;18.10;99595.00;;;;5108529;28;20044;-76
2021/11/30 02:00:00;;;;;;;0.00;0.00;;;;;18.20;99614.00;;;;5109005;28;20615;-75
2021/11/30 02:02:31;;;;;;;0.00;0.00;;;;;18.20;99604.00;;;;5107897;28;20056;-74
2021/11/30 02:05:00;;;;;;;0.00;0.00;;;;;18.30;99595.00;;;;5108573;28;20425;-74
2021/11/30 02:07:30;;;;;;;0.20;0.20;;;;;18.40;99593.00;;;;5108042;28;20039;-76
2021/11/30 02:10:00;;;;;;;0.98;0.55;;;;;18.60;99604.00;;;;5108489;28;20078;-75
2021/11/30 02:12:29;;;;;;;26.90;24.38;;;;;18.90;99592.00;;;;5108380;28;20517;-75
2021/11/30 02:15:00;;;;;;;0.10;0.10;;;;;19.20;99602.00;;;;5108206;28;20096;-76
2021/11/30 02:17:31;;;;;;;0.00;0.00;;;;;19.50;99597.00;;;;5108296;28;20047;-75
2021/11/30 02:20:00;;;;;;;0.40;0.32;;;;;19.60;99590.00;;;;5108149;28;20510;-74
2021/11/30 02:22:29;;;;;;;0.00;0.00;;;;;19.70;99586.00;;;;5108233;28;20471;-75
2021/11/30 02:24:59;;;;;;;0.00;0.00;;;;;19.90;99592.00;;;;5108012;28;20096;-75
2021/11/30 02:27:28;;;;;;;0.08;0.08;;;;;20.10;99589.00;;;;5107908;28;20096;-75
2021/11/30 02:29:58;;;;;;;0.00;0.00;;;;;20.20;99582.00;;;;5108776;28;20054;-75
2021/11/30 02:32:27;;;;;;;0.00;0.00;;;;;20.10;99572.00;;;;5108080;28;20089;-75
2021/11/30 02:34:56;;;;;;;0.00;0.00;;;;;20.30;99583.00;;;;5108075;28;20062;-75
2021/11/30 02:37:28;;;;;;;0.08;0.00;;;;;20.40;99601.00;;;;5107752;28;20051;-75
2021/11/30 02:40:02;;;;;;;0.00;0.00;;;;;20.50;99573.00;;;;5107433;28;20552;-75
2021/11/30 02:42:32;;;;;;;0.10;0.10;;;;;20.60;99591.00;;;;5108232;28;20043;-75
2021/11/30 02:45:02;;;;;;;0.00;0.00;;;;;20.50;99580.00;;;;5107917;28;20084;-75
2021/11/30 02:47:31;;;;;;;0.00;0.00;;;;;20.40;99576.00;;;;5107545;28;20047;-75
2021/11/30 02:50:01;;;;;;;0.00;0.00;;;;;20.50;99573.00;;;;5107951;28;20044;-75
2021/11/30 02:52:30;;;;;;;0.00;0.00;;;;;20.50;99573.00;;;;5107584;28;20096;-75
2021/11/30 02:54:59;;;;;;;0.00;0.00;;;;;20.50;99564.00;;;;5107456;28;20116;-75
2021/11/30 02:57:29;;;;;;;1124.72;521.45;;;;;20.60;99586.00;;;;5107542;28;20039;-75
2021/11/30 02:59:59;;;;;;;0.00;0.00;;;;;20.50;99592.00;;;;5107492;28;20450;-75
2021/11/30 03:02:29;;;;;;;0.00;0.00;;;;;20.40;99577.00;;;;5107019;28;20039;-75
2021/11/30 03:05:01;;;;;;;0.00;0.00;;;;;20.30;99576.00;;;;5088721;28;20047;-75
2021/11/30 03:07:39;;;;;;;0.00;0.00;;;;;20.30;99574.00;;;;5090062;28;20047;-75
2021/11/30 03:10:13;;;;;;;0.20;0.00;;;;;20.60;99577.00;;;;5107587;28;20039;-75
2021/11/30 03:12:44;;;;;;;0.00;0.00;;;;;20.60;99571.00;;;;5107218;28;20118;-75
2021/11/30 03:15:17;;;;;;;0.00;0.00;;;;;20.60;99570.00;;;;5107485;28;20039;-75
2021/11/30 03:17:47;;;;;;;0.00;0.00;;;;;20.70;99582.00;;;;5107781;28;20185;-75
2021/11/30 03:20:18;;;;;;;0.00;0.00;;;;;20.70;99569.00;;;;5107316;28;20093;-75
2021/11/30 03:22:48;;;;;;;0.03;0.03;;;;;20.70;99574.00;;;;5107447;28;20043;-75
2021/11/30 03:25:18;;;;;;;0.00;0.00;;;;;20.60;99566.00;;;;5106997;28;20051;-75
2021/11/30 03:27:48;;;;;;;0.00;0.00;;;;;20.70;99565.00;;;;5106492;28;20035;-75
2021/11/30 03:30:22;;;;;;;;;;;;;20.90;99572.00;;;;5107518;28;20482;-75
2021/11/30 03:35:40;;;;;;;0.00;0.00;;;;;20.90;99551.00;;;;5107292;28;20109;-75
2021/11/30 03:38:09;;;;;;;0.00;0.00;;;;;21.00;99552.00;;;;5106541;28;20126;-75
2021/11/30 03:40:39;;;;;;;0.10;0.10;;;;;21.10;99538.00;;;;5107403;28;20065;-75
2021/11/30 03:43:09;;;;;;;0.10;0.10;;;;;21.20;99555.00;;;;5107016;28;20054;-75
2021/11/30 03:45:38;;;;;;;0.00;0.00;;;;;21.20;99548.00;;;;5106616;28;20089;-75
2021/11/30 03:48:07;;;;;;;0.08;0.08;;;;;21.20;99539.00;;;;5107242;28;20047;-75
2021/11/30 03:50:37;;;;;;;0.00;0.00;;;;;21.20;99544.00;;;;5106958;28;20036;-75
2021/11/30 03:53:06;;;;;;;0.10;0.10;;;;;21.20;99560.00;;;;5106540;28;20043;-75
2021/11/30 03:55:35;;;;;;;5.25;0.25;;;;;21.20;99544.00;;;;5107263;28;20088;-75
2021/11/30 03:58:05;;;;;;;0.00;0.00;;;;;21.20;99528.00;;;;5106896;28;20052;-75
2021/11/30 04:00:34;;;;;;;0.00;0.00;;;;;21.20;99527.00;;;;5106473;28;20101;-76
2021/11/30 04:03:04;;;;;;;0.00;0.00;;;;;21.10;99529.00;;;;5087842;28;20098;-75
2021/11/30 04:05:33;;;;;;;4.30;0.38;;;;;21.10;99524.00;;;;5106717;28;20040;-75
2021/11/30 04:08:03;;;;;;;0.10;0.10;;;;;21.10;99551.00;;;;5106911;28;20491;-75
2021/11/30 04:10:33;;;;;;;0.10;0.10;;;;;21.20;99544.00;;;;5106348;28;20422;-75
2021/11/30 04:13:02;;;;;;;0.00;0.00;;;;;21.20;99523.00;;;;5106230;28;20047;-75
2021/11/30 04:15:32;;;;;;;0.15;0.15;;;;;21.20;99519.00;;;;5110464;28;20052;-75
2021/11/30 04:18:01;;;;;;;1.88;0.38;;;;;21.20;99526.00;;;;5110656;28;20055;-75
2021/11/30 04:20:30;;;;;;;0.00;0.00;;;;;21.10;99526.00;;;;5111145;28;20077;-75
2021/11/30 04:23:00;;;;;;;0.50;0.40;;;;;21.10;99519.00;;;;5110675;28;20055;-75
2021/11/30 04:25:29;;;;;;;0.00;0.00;;;;;21.20;99521.00;;;;5092484;28;20077;-75
2021/11/30 04:27:58;;;;;;;0.10;0.10;;;;;21.30;99528.00;;;;5110666;28;20055;-75
2021/11/30 04:30:28;;;;;;;0.00;0.00;;;;;21.20;99518.00;;;;5109849;28;20052;-75
2021/11/30 04:32:57;;;;;;;0.43;0.43;;;;;21.10;99511.00;;;;5110401;28;20140;-75
2021/11/30 04:35:26;;;;;;;0.10;0.10;;;;;21.20;99499.00;;;;5109921;28;20480;-75
2021/11/30 04:37:56;;;;;;;0.00;0.00;;;;;21.20;99495.00;;;;5110333;28;20039;-75
2021/11/30 04:40:25;;;;;;;0.10;0.10;;;;;21.10;99491.00;;;;5110471;28;20439;-75
2021/11/30 04:42:55;;;;;;;0.00;0.00;;;;;21.10;99513.00;;;;5110302;28;20043;-75
2021/11/30 04:45:28;;;;;;;0.00;0.00;;;;;21.00;99490.00;;;;5110249;28;20084;-75
2021/11/30 04:47:59;;;;;;;0.00;0.00;;;;;21.10;99479.00;;;;5092261;28;20507;-75
2021/11/30 04:50:32;;;;;;;0.13;0.13;;;;;21.20;99494.00;;;;5109831;28;20047;-74
2021/11/30 04:53:04;;;;;;;0.00;0.00;;;;;21.20;99507.00;;;;5109992;28;20074;-75
2021/11/30 04:55:34;;;;;;;2.80;0.65;;;;;21.20;99490.00;;;;5109953;28;20043;-75
2021/11/30 04:58:06;;;;;;;0.00;0.00;;;;;21.30;99501.00;;;;5109911;28;20048;-75
2021/11/30 05:00:37;;;;;;;0.00;0.00;;;;;21.30;99499.00;;;;5109766;28;20047;-75
2021/11/30 05:03:07;;;;;;;0.00;0.00;;;;;21.20;99501.00;;;;5110309;28;20512;-75
2021/11/30 05:05:37;;;;;;;0.00;0.00;;;;;21.10;99490.00;;;;5109564;28;20045;-75
2021/11/30 05:08:07;;;;;;;0.00;0.00;;;;;21.20;99481.00;;;;5109821;28;20130;-75
2021/11/30 05:10:37;;;;;;;0.00;0.00;;;;;21.10;99513.00;;;;5109982;28;20047;-75
2021/11/30 05:13:06;;;;;;;0.00;0.00;;;;;21.20;99495.00;;;;5109584;28;20116;-75
2021/11/30 05:15:36;;;;;;;0.10;0.00;;;;;21.20;99494.00;;;;5110200;28;20050;-75
2021/11/30 05:18:05;;;;;;;0.00;0.00;;;;;21.30;99478.00;;;;5109251;28;20040;-75
2021/11/30 05:20:35;;;;;;;376.73;49.58;;;;;21.30;99504.00;;;;5109718;28;20134;-75
2021/11/30 05:23:05;;;;;;;0.00;0.00;;;;;21.10;99482.00;;;;5109554;28;20514;-75
2021/11/30 05:25:37;;;;;;;0.00;0.00;;;;;21.10;99495.00;;;;5108082;28;20127;-75
2021/11/30 05:28:08;;;;;;;0.10;0.10;;;;;21.10;99497.00;;;;5108781;28;20063;-75
2021/11/30 05:30:39;;;;;;;0.75;0.10;;;;;21.20;99499.00;;;;5108998;28;20051;-74
2021/11/30 05:33:11;;;;;;;2.28;1.20;;;;;21.20;99501.00;;;;5109064;28;20730;-74
2021/11/30 05:35:42;;;;;;;0.00;0.00;;;;;21.10;99487.00;;;;5109188;28;20101;-75
2021/11/30 05:38:12;;;;;;;0.00;0.00;;;;;21.00;99490.00;;;;5109113;28;20047;-75
2021/11/30 05:40:42;;;;;;;0.00;0.00;;;;;21.00;99508.00;;;;5109297;28;20042;-75
2021/11/30 05:43:13;;;;;;;0.08;0.08;;;;;21.00;99503.00;;;;5090124;28;20055;-75
2021/11/30 05:45:43;;;;;;;0.00;0.00;;;;;21.00;99505.00;;;;5109929;28;20040;-75
2021/11/30 05:48:15;;;;;;;0.00;0.00;;;;;21.10;99510.00;;;;5109528;28;20285;-75
2021/11/30 05:50:46;;;;;;;0.03;0.03;;;;;21.10;99500.00;;;;5108769;28;20482;-76
2021/11/30 05:53:15;;;;;;;0.10;0.10;;;;;21.00;99495.00;;;;5108815;28;20043;-74
2021/11/30 05:55:45;;;;;;;0.50;0.08;;;;;20.90;99510.00;;;;5108420;28;20077;-75
2021/11/30 05:58:15;;;;;;;0.00;0.00;;;;;20.90;99504.00;;;;5108693;28;20125;-76
2021/11/30 06:00:45;;;;;;;0.00;0.00;;;;;20.90;99510.00;;;;5090710;28;20798;-74
2021/11/30 06:05:56;;;;;;;0.00;0.00;;;;;21.10;99496.00;;;;5108752;28;20039;-77
2021/11/30 06:08:25;;;;;;;0.00;0.00;;;;;21.10;99507.00;;;;5108440;28;20092;-76
2021/11/30 06:10:55;;;;;;;0.00;0.00;;;;;21.00;99495.00;;;;5108896;28;20043;-75
2021/11/30 06:13:24;;;;;;;0.00;0.00;;;;;21.00;99516.00;;;;5108882;28;20036;-75
2021/11/30 06:15:54;;;;;;;2.40;0.30;;;;;21.00;99509.00;;;;5108211;28;20043;-75
2021/11/30 06:18:23;;;;;;;0.00;0.00;;;;;20.90;99495.00;;;;5108062;28;20039;-75
2021/11/30 06:20:53;;;;;;;0.00;0.00;;;;;20.90;99488.00;;;;5108025;28;20130;-75
2021/11/30 06:23:22;;;;;;;0.20;0.10;;;;;20.90;99493.00;;;;5090508;28;20048;-75
2021/11/30 06:25:51;;;;;;;0.00;0.00;;;;;20.90;99502.00;;;;5108497;28;20047;-74
2021/11/30 06:28:21;;;;;;;0.90;0.17;;;;;21.00;99502.00;;;;5108401;28;20402;-76
2021/11/30 06:30:52;;;;;;;0.17;0.10;;;;;21.00;99524.00;;;;5108275;28;20047;-75
2021/11/30 06:33:21;;;;;;;0.20;0.15;;;;;20.90;99510.00;;;;5108243;28;20383;-75
2021/11/30 06:35:50;;;;;;;0.30;0.30;;;;;20.90;99524.00;;;;5108015;28;20055;-75
2021/11/30 06:38:20;;;;;;;0.00;0.00;;;;;20.80;99528.00;;;;5107270;28;20101;-75
2021/11/30 06:40:49;;;;;;;0.47;0.47;;;;;20.90;99515.00;;;;5107819;28;20055;-75
2021/11/30 06:43:19;;;;;;;0.47;0.47;;;;;21.00;99526.00;;;;5108156;28;20055;-77
2021/11/30 06:45:48;;;;;;;0.65;0.65;;;;;21.00;99547.00;;;;5107457;28;20043;-75
2021/11/30 06:48:20;;;;;;;2.72;0.50;;;;;21.00;99537.00;;;;5107785;28;20405;-75
2021/11/30 06:50:51;;;;;;;0.30;0.30;;;;;20.90;99525.00;;;;5108043;28;20065;-75
2021/11/30 06:53:21;;;;;;;;;;;;;20.80;99557.00;;;;5108833;28;20040;-77
2021/11/30 06:55:51;;;;;;;0.00;0.00;;;;;20.80;99550.00;;;;5089887;28;19924;-76
2021/11/30 06:58:20;;;;;;;0.17;0.17;;;;;20.80;99536.00;;;;5107300;28;20035;-75
2021/11/30 07:00:52;;;;;;;0.00;0.00;;;;;20.80;99551.00;;;;5089104;28;20506;-75
2021/11/30 07:03:22;;;;;;;0.30;0.30;;;;;20.80;99551.00;;;;5107200;28;20510;-75
2021/11/30 07:05:58;;;;;;;0.00;0.00;;;;;20.80;99560.00;;;;5107421;28;20537;-75
2021/11/30 07:11:47;;;;;;;0.25;0.15;;;;;20.80;99569.00;;;;5076948;28;20472;-76
2021/11/30 07:14:15;;;;;;;0.00;0.00;;;;;20.80;99562.00;;;;5108474;28;20039;-75
2021/11/30 07:16:46;;;;;;;;;;;;;20.70;99574.00;;;;5107722;28;20596;-75
2021/11/30 07:19:17;;;;;;;0.08;0.00;;;;;20.60;99560.00;;;;5106729;28;19924;-76
2021/11/30 07:21:46;;;;;;;0.00;0.00;;;;;20.60;99552.00;;;;5107341;28;20048;-74
2021/11/30 07:24:16;;;;;;;0.00;0.00;;;;;20.60;99548.00;;;;5107003;28;20059;-76
2021/11/30 07:26:45;;;;;;;0.00;0.00;;;;;20.60;99569.00;;;;5107112;28;20073;-75
2021/11/30 07:29:34;;;;;;;0.00;0.00;;;;;20.60;99569.00;;;;5106513;28;20463;-75
2021/11/30 07:32:04;;;;;;;0.30;0.30;;;;;20.60;99586.00;;;;5106868;28;20088;-73
2021/11/30 07:34:34;;;;;;;0.00;0.00;;;;;20.70;99574.00;;;;5089569;28;20052;-75
2021/11/30 07:37:03;;;;;;;0.00;0.00;;;;;20.60;99589.00;;;;5107775;28;20452;-76
2021/11/30 07:39:33;;;;;;;0.10;0.10;;;;;20.60;99586.00;;;;5106952;28;20570;-74
2021/11/30 07:42:03;;;;;;;0.00;0.00;;;;;20.60;99592.00;;;;5106649;28;20052;-76
2021/11/30 07:44:33;;;;;;;0.00;0.00;;;;;20.60;99585.00;;;;5107326;28;20074;-75
2021/11/30 07:47:02;;;;;;;0.00;0.00;;;;;20.60;99589.00;;;;5106892;28;20044;-76
2021/11/30 07:49:32;;;;;;;0.00;0.00;;;;;20.60;99580.00;;;;5106466;28;20043;-76
2021/11/30 07:52:02;;;;;;;0.65;0.32;;;;;20.60;99594.00;;;;5106690;28;20125;-75
2021/11/30 07:54:31;;;;;;;0.00;0.00;;;;;20.60;99592.00;;;;5106345;28;20071;-75
2021/11/30 07:57:00;;;;;;;0.00;0.00;;;;;20.60;99606.00;;;;5107260;28;20047;-75
2021/11/30 07:59:31;;;;;;;0.00;0.00;;;;;20.60;99592.00;;;;5106888;28;20044;-75
2021/11/30 08:02:01;;;;;;;;;;;;;20.70;99615.00;;;;5106920;28;20036;-75
2021/11/30 08:04:30;;;;;;;0.00;0.00;;;;;20.70;99604.00;;;;5106744;28;19931;-75
2021/11/30 08:07:00;;;;;;;0.00;0.00;;;;;20.70;99614.00;;;;5106635;28;20122;-76
2021/11/30 08:09:34;;;;;;;0.00;0.00;;;;;20.60;99611.00;;;;5106927;28;20164;-75
2021/11/30 08:12:03;;;;;;;0.10;0.10;;;;;20.50;99621.00;;;;5106610;28;20051;-75
2021/11/30 08:14:33;;;;;;;0.00;0.00;;;;;20.60;99613.00;;;;5106486;28;20051;-75
2021/11/30 08:17:02;;;;;;;0.93;0.55;;;;;20.60;99614.00;;;;5106992;28;20048;-75
2021/11/30 08:19:32;;;;;;;0.00;0.00;;;;;20.60;99632.00;;;;5107062;28;20035;-74
2021/11/30 08:22:01;;;;;;;0.00;0.00;;;;;20.60;99619.00;;;;5106767;28;20053;-76
2021/11/30 08:24:31;;;;;;;0.20;0.15;;;;;20.50;99623.00;;;;5106929;28;20116;-76
2021/11/30 08:27:00;;;;;;;1.70;0.65;;;;;20.60;99642.00;;;;5106477;28;20087;-74
2021/11/30 08:29:31;;;;;;;0.00;0.00;;;;;20.70;99643.00;;;;5106068;28;20120;-76
2021/11/30 08:32:00;;;;;;;0.38;0.15;;;;;20.70;99647.00;;;;5106489;28;20055;-76
2021/11/30 08:34:29;;;;;;;0.00;0.00;;;;;20.70;99651.00;;;;5106347;28;20579;-75
2021/11/30 08:36:59;;;;;;;0.00;0.00;;;;;20.70;99646.00;;;;5106211;28;20047;-75
2021/11/30 08:39:28;;;;;;;0.00;0.00;;;;;20.80;99660.00;;;;5106904;28;20055;-75
2021/11/30 08:41:58;;;;;;;0.03;0.03;;;;;20.80;99639.00;;;;5106444;28;20048;-76
2021/11/30 08:44:29;;;;;;;0.00;0.00;;;;;20.80;99655.00;;;;5106337;28;20035;-75
2021/11/30 08:46:59;;;;;;;0.10;0.10;;;;;20.90;99641.00;;;;5106981;28;20067;-75
2021/11/30 08:49:29;;;;;;;4.78;0.20;;;;;20.90;99648.00;;;;5106217;28;20043;-75
2021/11/30 08:51:59;;;;;;;0.00;0.00;;;;;20.90;99665.00;;;;5106493;28;20047;-76
2021/11/30 08:54:29;;;;;;;0.00;0.00;;;;;21.00;99673.00;;;;5088786;28;20498;-75
2021/11/30 08:57:00;;;;;;;0.10;0.10;;;;;21.00;99672.00;;;;5106015;28;20156;-74
2021/11/30 08:59:30;;;;;;;0.20;0.20;;;;;21.00;99663.00;;;;5088338;28;20055;-76
2021/11/30 09:02:00;;;;;;;0.08;0.08;;;;;21.00;99664.00;;;;5109000;28;20050;-76
2021/11/30 09:04:29;;;;;;;0.03;0.03;;;;;21.00;99683.00;;;;5108549;28;20066;-75
2021/11/30 09:06:59;;;;;;;0.10;0.10;;;;;21.00;99675.00;;;;5105953;28;20044;-76
2021/11/30 09:09:29;;;;;;;0.03;0.03;;;;;21.10;99683.00;;;;5108622;28;20065;-76
2021/11/30 09:12:05;;;;;;;0.05;0.05;;;;;21.10;99681.00;;;;5109562;28;20054;-74
2021/11/30 09:14:34;;;;;;;0.00;0.00;;;;;21.10;99693.00;;;;5109571;28;20122;-76
2021/11/30 09:17:04;;;;;;;1.00;0.98;;;;;21.10;99649.00;;;;5109388;28;20048;-75
2021/11/30 09:19:34;;;;;;;0.13;0.13;;;;;21.20;99687.00;;;;5109781;28;20043;-75
2021/11/30 09:22:08;;;;;;;0.00;0.00;;;;;21.30;99708.00;;;;5109051;28;20558;-74
2021/11/30 09:24:37;;;;;;;0.00;0.00;;;;;21.30;99709.00;;;;5109745;28;20036;-75
2021/11/30 09:27:07;;;;;;;0.00;0.00;;;;;21.40;99694.00;;;;5108809;28;20071;-75
2021/11/30 09:29:37;;;;;;;0.08;0.05;;;;;21.40;99682.00;;;;5109221;28;20044;-76
2021/11/30 09:32:09;;;;;;;0.00;0.00;;;;;21.40;99691.00;;;;5109932;28;20065;-76
2021/11/30 09:35:00;;;;;;;0.00;0.00;;;;;21.30;99708.00;;;;5109178;28;20052;-76
2021/11/30 09:37:30;;;;;;;;;;;;;21.30;99705.00;;;;5109515;28;20043;-75
2021/11/30 09:39:59;;;;;;;0.00;0.00;;;;;21.60;99712.00;;;;5109369;28;19964;-75
2021/11/30 09:42:29;;;;;;;0.00;0.00;;;;;21.80;99702.00;;;;5109515;28;20055;-75
2021/11/30 09:44:58;;;;;;;0.35;0.30;;;;;22.30;99700.00;;;;5109059;28;20039;-74
2021/11/30 09:47:28;;;;;;;0.00;0.00;;;;;22.30;99721.00;;;;5109186;28;20048;-75
2021/11/30 09:49:59;;;;;;;0.00;0.00;;;;;22.50;99693.00;;;;5109015;28;20043;-76
2021/11/30 09:52:29;;;;;;;0.52;0.30;;;;;21.90;99722.00;;;;5109065;28;20456;-77
2021/11/30 09:54:58;;;;;;;0.10;0.10;;;;;21.60;99733.00;;;;5108893;28;20506;-74
2021/11/30 09:57:31;;;;;;;0.00;0.00;;;;;21.70;99713.00;;;;5108983;28;20060;-75
2021/11/30 10:00:03;;;;;;;0.55;0.40;;;;;21.60;99735.00;;;;5108707;28;20207;-74
2021/11/30 10:02:59;;;;;;;0.00;0.00;;;;;21.80;99744.00;;;;5108935;28;20077;-75
2021/11/30 10:05:30;;;;;;;0.10;0.10;;;;;21.60;99735.00;;;;5108386;28;20043;-73
2021/11/30 10:08:00;;;;;;;1.20;0.73;;;;;21.80;99744.00;;;;5108763;28;20044;-72
2021/11/30 10:10:35;;;;;;;0.43;0.40;;;;;22.10;99743.00;;;;5108584;28;20048;-75
2021/11/30 10:13:05;;;;;;;0.93;0.50;;;;;22.30;99725.00;;;;5107873;28;20047;-76
2021/11/30 10:15:47;;;;;;;0.30;0.20;;;;;23.40;99622.00;;;;5108159;28;20043;-74
2021/11/30 10:18:18;;;;;;;0.32;0.20;;;;;24.30;99663.00;;;;5089579;28;20426;-74
2021/11/30 10:20:51;;;;;;;0.30;0.30;;;;;23.80;99701.00;;;;5090368;28;20428;-74
2021/11/30 10:23:24;;;;;;;0.45;0.45;;;;;24.10;99725.00;;;;5109140;28;20135;-75
2021/11/30 10:25:53;;;;;;;0.10;0.10;;;;;23.30;99762.00;;;;5107725;28;20119;-75
2021/11/30 10:28:27;;;;;;;0.00;0.00;;;;;23.80;99678.00;;;;5108387;28;20047;-75
2021/11/30 10:30:57;;;;;;;0.30;0.30;;;;;23.40;99758.00;;;;5108596;28;20584;-74
2021/11/30 10:33:28;;;;;;;0.68;0.68;;;;;22.70;99779.00;;;;5108008;28;20104;-74
2021/11/30 10:35:59;;;;;;;;;;;;;23.10;99784.00;;;;5108471;28;20060;-75
2021/11/30 10:38:40;;;;;;;0.00;0.00;;;;;23.30;99763.00;;;;5106370;28;19938;-75
2021/11/30 10:41:20;;;;;;;1.42;0.40;;;;;23.20;99761.00;;;;5107708;28;20043;-75
2021/11/30 10:43:56;;;;;;;;;;;;;22.90;99754.00;;;;5090070;28;20690;-73
2021/11/30 10:46:33;;;;;;;0.00;0.00;;;;;23.80;99737.00;;;;5107542;28;20325;-74
2021/11/30 10:49:04;;;;;;;1.33;0.20;;;;;24.70;99638.00;;;;5107243;28;20043;-74
2021/11/30 10:51:48;;;;;;;0.28;0.28;;;;;30.90;99737.00;;;;5108086;28;20093;-74
2021/11/30 10:54:22;;;;;;;1.00;0.28;;;;;29.80;99567.00;;;;5107542;28;20127;-76
2021/11/30 10:57:02;;;;;;;0.00;0.00;;;;;29.40;99560.00;;;;5107587;28;20050;-74
2021/11/30 10:59:32;;;;;;;0.00;0.00;;;;;27.70;99551.00;;;;5107273;28;20531;-75
2021/11/30 11:02:03;;;;;;;0.35;0.17;;;;;25.20;99585.00;;;;5088295;28;20051;-75
2021/11/30 11:04:33;;;;;;;1.50;0.20;;;;;26.90;99718.00;;;;5107436;28;20032;-75
2021/11/30 11:07:08;;;;;;;0.20;0.20;;;;;29.60;99585.00;;;;5107503;28;20032;-74
2021/11/30 11:09:50;;;;;;;0.00;0.00;;;;;30.20;99529.00;;;;5107277;28;20038;-75
2021/11/30 11:12:28;;;;;;;2.75;0.57;;;;;29.90;99549.00;;;;5107542;28;20046;-75
2021/11/30 11:15:00;;;;;;;0.00;0.00;;;;;31.40;99531.00;;;;5108174;28;20426;-75
2021/11/30 11:17:33;;;;;;;0.57;0.17;;;;;29.60;99523.00;;;;5107573;28;20039;-75
2021/11/30 11:20:03;;;;;;;1.77;0.47;;;;;30.70;99603.00;;;;5108043;28;20051;-75
2021/11/30 11:22:34;;;;;;;0.00;0.00;;;;;30.20;99548.00;;;;5106320;28;20039;-75
2021/11/30 11:25:06;;;;;;;0.13;0.13;;;;;31.40;99565.00;;;;5102707;28;20533;-72
2021/11/30 11:27:40;;;;;;;3.70;0.55;;;;;29.20;99792.00;;;;5102408;28;20531;-74
2021/11/30 11:30:12;;;;;;;0.00;0.00;;;;;26.90;99603.00;;;;5105791;28;20043;-75
2021/11/30 11:32:47;;;;;;;0.00;0.00;;;;;28.40;99610.00;;;;5107349;28;20050;-74
2021/11/30 11:35:17;;;;;;;0.00;0.00;;;;;28.30;99573.00;;;;5108065;28;20452;-75
2021/11/30 11:37:46;;;;;;;0.90;0.27;;;;;29.70;99587.00;;;;5107286;28;20035;-75
2021/11/30 11:40:16;;;;;;;0.30;0.28;;;;;29.30;99586.00;;;;5106942;28;20089;-76
2021/11/30 11:42:46;;;;;;;0.00;0.00;;;;;28.80;99707.00;;;;5106800;28;20043;-75
2021/11/30 11:45:15;;;;;;;0.00;0.00;;;;;25.70;99809.00;;;;5106848;28;20055;-74
2021/11/30 11:47:44;;;;;;;0.00;0.00;;;;;27.00;99809.00;;;;5106511;28;20293;-74
2021/11/30 11:50:14;;;;;;;1.20;0.70;;;;;26.90;99704.00;;;;5106748;28;20043;-75
2021/11/30 11:52:44;;;;;;;0.88;0.57;;;;;26.10;99798.00;;;;5106915;28;20043;-75
2021/11/30 11:55:20;;;;;;;0.50;0.40;;;;;26.70;99764.00;;;;5106748;28;20039;-76
2021/11/30 11:58:02;;;;;;;0.63;0.10;;;;;26.30;99791.00;;;;5107227;28;20032;-75
2021/11/30 12:00:35;;;;;;;0.40;0.40;;;;;25.00;99733.00;;;;5106684;28;20456;-75
2021/11/30 12:03:07;;;;;;;0.88;0.38;;;;;25.70;99737.00;;;;5089133;28;20433;-74
2021/11/30 12:05:54;;;;;;;0.20;0.10;;;;;25.60;99738.00;;;;5107209;28;20047;-73
2021/11/30 12:08:35;;;;;;;0.00;0.00;;;;;26.50;99732.00;;;;5106546;28;20123;-74
2021/11/30 12:11:11;;;;;;;0.68;0.50;;;;;26.90;99728.00;;;;5106811;28;20043;-75
2021/11/30 12:13:56;;;;;;;0.13;0.13;;;;;26.00;99812.00;;;;5106727;28;20541;-75
2021/11/30 12:16:25;;;;;;;0.00;0.00;;;;;25.80;99805.00;;;;5089284;28;20444;-74
2021/11/30 12:18:56;;;;;;;0.08;0.08;;;;;26.60;99743.00;;;;5107071;28;20053;-75
2021/11/30 12:21:28;;;;;;;0.73;0.30;;;;;26.50;99732.00;;;;5106593;28;20055;-75
2021/11/30 12:24:00;;;;;;;0.32;0.20;;;;;26.10;99812.00;;;;5106434;28;20474;-76
2021/11/30 12:26:41;;;;;;;0.00;0.00;;;;;26.70;99753.00;;;;5106603;28;20521;-75
2021/11/30 12:29:20;;;;;;;;;;;;;26.70;99747.00;;;;5088513;28;20058;-77
2021/11/30 12:31:55;;;;;;;0.10;0.10;;;;;27.30;99766.00;;;;5106615;28;20578;-75
2021/11/30 12:34:37;;;;;;;0.65;0.60;;;;;27.70;99748.00;;;;5106518;28;20170;-74
2021/11/30 12:37:10;;;;;;;0.43;0.20;;;;;28.00;99761.00;;;;5110470;28;20126;-76
2021/11/30 12:40:06;;;;;;;0.10;0.10;;;;;28.10;99753.00;;;;5110906;28;20081;-75
2021/11/30 12:42:41;;;;;;;0.20;0.20;;;;;27.90;99755.00;;;;5110479;28;20050;-76
2021/11/30 12:45:14;;;;;;;0.00;0.00;;;;;28.30;99762.00;;;;5093071;28;20040;-75
2021/11/30 12:47:44;;;;;;;0.10;0.10;;;;;28.10;99736.00;;;;5110616;28;20107;-76
2021/11/30 12:50:27;;;;;;;0.10;0.10;;;;;27.00;99732.00;;;;5109820;28;20524;-74
2021/11/30 12:53:05;;;;;;;0.35;0.10;;;;;27.20;99839.00;;;;5110191;28;20039;-76